Time;durP1;ratioP1;P1;durP2;ratioP2;P2;SDS_P1;SDS_P2;PMS_P1;PMS_P2;Temp;Humidity;BMP_temperature;BMP_pressure;BME280_temperature;BME280_humidity;BME280_pressure;Samples;Min_cycle;Max_cycle;Signal;HPM_P1;HPM_P2
2022/12/22 03:25:53;;;;;;;0.40;0.40;;;14.50;89.30;;;;;;5094981;28;20671;-68
2022/12/22 03:28:41;;;;;;;0.40;0.40;;;14.60;89.40;;;;;;5094539;28;20216;-68
2022/12/22 03:31:30;;;;;;;0.40;0.40;;;14.60;89.40;;;;;;5094421;28;20203;-68
2022/12/22 03:34:18;;;;;;;0.40;0.40;;;14.70;89.50;;;;;;5094267;28;20578;-68
2022/12/22 03:37:06;;;;;;;0.40;0.40;;;14.60;90.00;;;;;;5094438;28;20299;-68
2022/12/22 03:39:54;;;;;;;0.40;0.40;;;14.60;89.20;;;;;;5094431;28;20203;-68
2022/12/22 03:49:12;;;;;;;0.40;0.40;;;14.60;89.30;;;;;;5094274;28;20242;-74
2022/12/22 03:52:00;;;;;;;0.40;0.40;;;14.60;89.40;;;;;;5094877;28;20595;-69
2022/12/22 03:54:48;;;;;;;0.40;0.40;;;14.60;89.40;;;;;;5094438;28;20242;-71
2022/12/22 03:57:36;;;;;;;0.40;0.40;;;14.70;89.40;;;;;;5093632;28;20307;-70
2022/12/22 04:00:24;;;;;;;0.40;0.40;;;14.80;89.50;;;;;;5093946;28;20200;-70
2022/12/22 04:03:12;;;;;;;0.40;0.40;;;14.60;89.30;;;;;;5089753;28;20223;-70
2022/12/22 04:06:02;;;;;;;0.40;0.40;;;14.60;89.50;;;;;;5073565;28;20654;-67
2022/12/22 04:08:50;;;;;;;0.40;0.40;;;14.60;89.40;;;;;;5072974;28;20761;-70
2022/12/22 04:14:45;;;;;;;0.40;0.40;;;14.50;89.20;;;;;;5073775;28;20223;-67
2022/12/22 04:17:33;;;;;;;0.40;0.40;;;14.60;89.40;;;;;;5073760;28;20216;-67
2022/12/22 04:20:22;;;;;;;0.40;0.40;;;14.60;89.50;;;;;;5073443;28;20228;-66
2022/12/22 04:23:12;;;;;;;0.40;0.40;;;14.60;89.30;;;;;;5074008;28;20689;-70
2022/12/22 04:26:00;;;;;;;0.40;0.40;;;14.60;89.40;;;;;;5072810;28;20200;-68
2022/12/22 04:28:49;;;;;;;0.40;0.40;;;14.60;89.40;;;;;;5072671;28;20244;-68
2022/12/22 04:31:37;;;;;;;0.40;0.40;;;14.60;89.40;;;;;;5072929;28;20485;-67
2022/12/22 04:34:25;;;;;;;0.40;0.40;;;14.60;89.70;;;;;;5073261;28;20193;-71
2022/12/22 04:37:13;;;;;;;0.40;0.40;;;14.60;89.70;;;;;;5072695;28;20307;-70
2022/12/22 04:40:07;;;;;;;0.40;0.40;;;14.60;89.50;;;;;;5072606;28;20201;-67
2022/12/22 04:42:55;;;;;;;0.40;0.40;;;14.60;89.70;;;;;;5073599;28;20207;-66
2022/12/22 04:45:44;;;;;;;0.40;0.40;;;14.50;89.50;;;;;;5072943;28;20200;-67
2022/12/22 04:48:32;;;;;;;0.40;0.40;;;14.60;89.60;;;;;;5073133;28;20513;-68
2022/12/22 04:51:20;;;;;;;0.40;0.40;;;14.60;89.50;;;;;;5072871;28;20196;-68
2022/12/22 04:54:08;;;;;;;0.40;0.40;;;14.60;89.60;;;;;;5072625;28;20279;-68
2022/12/22 04:56:58;;;;;;;0.40;0.40;;;14.70;89.60;;;;;;5072346;28;20200;-67
2022/12/22 04:59:46;;;;;;;0.40;0.40;;;14.60;89.50;;;;;;5072120;28;20274;-70
2022/12/22 05:02:34;;;;;;;0.40;0.40;;;14.70;89.70;;;;;;5072569;28;20218;-69
2022/12/22 05:05:22;;;;;;;0.40;0.40;;;14.70;89.50;;;;;;5072649;28;20203;-68
2022/12/22 05:08:10;;;;;;;0.40;0.40;;;14.70;89.50;;;;;;5072775;28;20224;-68
2022/12/22 05:10:59;;;;;;;0.40;0.40;;;14.70;89.50;;;;;;5072367;28;20228;-68
2022/12/22 05:13:48;;;;;;;0.40;0.40;;;14.80;89.70;;;;;;5074756;28;20211;-67
2022/12/22 05:16:36;;;;;;;0.40;0.40;;;14.70;89.40;;;;;;5076295;28;20226;-67
2022/12/22 05:19:24;;;;;;;0.40;0.40;;;14.70;89.40;;;;;;5076557;28;20224;-70
2022/12/22 05:22:17;;;;;;;0.40;0.40;;;14.70;89.60;;;;;;5076736;28;20205;-68
2022/12/22 05:25:06;;;;;;;0.40;0.40;;;14.70;89.40;;;;;;5076769;28;20742;-68
2022/12/22 05:27:54;;;;;;;0.40;0.40;;;14.70;89.60;;;;;;5077786;28;20646;-67
2022/12/22 05:30:44;;;;;;;0.40;0.40;;;14.70;89.40;;;;;;5076325;28;20279;-67
2022/12/22 05:33:32;;;;;;;0.40;0.40;;;14.70;89.60;;;;;;5075941;28;20707;-68
2022/12/22 05:36:20;;;;;;;0.40;0.40;;;14.60;89.40;;;;;;5076251;28;20216;-66
2022/12/22 05:39:08;;;;;;;0.40;0.40;;;14.60;89.30;;;;;;5076482;28;20598;-67
2022/12/22 05:41:56;;;;;;;0.40;0.40;;;14.60;89.40;;;;;;5076759;28;20197;-67
2022/12/22 05:44:44;;;;;;;0.40;0.40;;;14.70;89.40;;;;;;5076298;28;20280;-67
2022/12/22 05:47:34;;;;;;;0.40;0.40;;;14.60;92.40;;;;;;5075782;28;20199;-67
2022/12/22 05:50:24;;;;;;;0.40;0.40;;;14.60;89.50;;;;;;5076051;28;20205;-67
2022/12/22 05:53:12;;;;;;;0.40;0.40;;;14.60;89.50;;;;;;5075985;28;20298;-67
2022/12/22 05:56:00;;;;;;;0.40;0.40;;;14.60;89.60;;;;;;5076024;28;20232;-69
2022/12/22 05:58:49;;;;;;;0.40;0.40;;;14.60;89.40;;;;;;5075220;28;20231;-67
2022/12/22 06:01:37;;;;;;;0.40;0.40;;;14.70;89.90;;;;;;5075780;28;20577;-68
2022/12/22 06:04:26;;;;;;;0.40;0.40;;;14.70;89.80;;;;;;5076239;28;20200;-68
2022/12/22 06:07:14;;;;;;;0.40;0.40;;;14.70;89.80;;;;;;5076255;28;20201;-67
2022/12/22 06:10:03;;;;;;;0.40;0.40;;;14.60;89.50;;;;;;5075516;28;20252;-67
2022/12/22 06:12:59;;;;;;;0.40;0.40;;;14.70;89.60;;;;;;5075752;28;20208;-67
2022/12/22 06:15:48;;;;;;;0.40;0.40;;;14.70;89.60;;;;;;5076059;28;20229;-67
2022/12/22 06:18:36;;;;;;;0.40;0.40;;;14.70;89.70;;;;;;5074859;28;20217;-71
2022/12/22 06:21:25;;;;;;;0.40;0.40;;;14.70;89.80;;;;;;5075642;28;20228;-70
2022/12/22 06:24:13;;;;;;;0.40;0.40;;;14.80;89.70;;;;;;5075168;28;20219;-67
2022/12/22 06:27:02;;;;;;;0.40;0.40;;;14.70;89.70;;;;;;5076291;28;20227;-68
2022/12/22 06:29:50;;;;;;;0.40;0.40;;;14.80;89.90;;;;;;5075118;28;20712;-67
2022/12/22 06:32:38;;;;;;;0.40;0.40;;;14.80;89.50;;;;;;5075509;28;20232;-67
2022/12/22 06:35:26;;;;;;;0.50;0.50;;;14.80;89.50;;;;;;5075371;28;20672;-68
2022/12/22 06:38:16;;;;;;;0.40;0.40;;;14.80;89.40;;;;;;5074912;28;20222;-70
2022/12/22 06:41:04;;;;;;;0.40;0.40;;;14.80;89.50;;;;;;5075122;28;20203;-67
2022/12/22 06:43:51;;;;;;;0.40;0.40;;;14.80;89.40;;;;;;5075737;28;20342;-67
2022/12/22 06:46:39;;;;;;;0.40;0.40;;;14.80;89.40;;;;;;5075292;28;20196;-68
2022/12/22 06:49:28;;;;;;;0.40;0.40;;;14.80;89.50;;;;;;5075050;28;20350;-67
2022/12/22 06:52:16;;;;;;;0.40;0.40;;;14.80;89.30;;;;;;5074998;28;20515;-67
2022/12/22 06:55:06;;;;;;;0.40;0.40;;;14.80;89.40;;;;;;5074839;28;20227;-67
2022/12/22 06:57:54;;;;;;;0.40;0.40;;;14.80;89.50;;;;;;5074707;28;20640;-67
2022/12/22 07:00:44;;;;;;;0.40;0.40;;;14.70;89.30;;;;;;5074305;28;20286;-67
2022/12/22 07:03:32;;;;;;;0.40;0.40;;;14.70;89.30;;;;;;5074695;28;20199;-67
2022/12/22 07:06:20;;;;;;;0.40;0.40;;;14.70;89.30;;;;;;5074668;28;20207;-67
2022/12/22 07:09:08;;;;;;;0.40;0.40;;;14.70;89.30;;;;;;5074406;28;20309;-67
2022/12/22 07:11:58;;;;;;;0.40;0.40;;;14.70;89.40;;;;;;5075059;28;20250;-67
2022/12/22 07:14:46;;;;;;;0.40;0.40;;;14.70;89.60;;;;;;5074531;28;20208;-67
2022/12/22 07:17:34;;;;;;;0.40;0.40;;;14.70;89.70;;;;;;5074195;28;20196;-67
2022/12/22 07:20:22;;;;;;;0.40;0.40;;;14.70;89.40;;;;;;5073866;28;20221;-68
2022/12/22 07:23:10;;;;;;;0.40;0.40;;;14.70;89.50;;;;;;5073957;28;20204;-68
2022/12/22 07:25:59;;;;;;;0.40;0.40;;;14.70;89.40;;;;;;5074064;28;20258;-68
2022/12/22 07:28:48;;;;;;;0.40;0.40;;;14.70;89.70;;;;;;5074120;28;20240;-68
2022/12/22 07:31:36;;;;;;;0.40;0.40;;;14.70;89.80;;;;;;5074458;28;20205;-68
2022/12/22 07:34:25;;;;;;;0.40;0.40;;;14.70;89.80;;;;;;5073973;28;20207;-67
2022/12/22 07:37:13;;;;;;;0.40;0.40;;;14.70;89.80;;;;;;5073536;28;20196;-67
2022/12/22 07:40:01;;;;;;;0.40;0.40;;;14.80;89.90;;;;;;5073508;28;20311;-68
2022/12/22 07:42:49;;;;;;;0.40;0.40;;;14.70;89.70;;;;;;5074558;28;20262;-68
2022/12/22 07:45:39;;;;;;;0.40;0.40;;;14.70;89.80;;;;;;5074149;28;20224;-66
2022/12/22 07:51:33;;;;;;;0.40;0.40;;;14.80;89.70;;;;;;5073913;28;20256;-67
2022/12/22 07:54:21;;;;;;;0.40;0.40;;;14.80;89.90;;;;;;5074039;28;20671;-66
2022/12/22 07:57:09;;;;;;;0.40;0.40;;;14.80;89.70;;;;;;5073500;28;20246;-68
2022/12/22 07:59:57;;;;;;;0.40;0.40;;;14.80;89.70;;;;;;5073164;28;20495;-68
2022/12/22 08:02:50;;;;;;;0.40;0.40;;;14.80;89.60;;;;;;5074159;28;20197;-68
2022/12/22 08:05:39;;;;;;;0.40;0.40;;;14.90;89.60;;;;;;5073676;28;20669;-67
2022/12/22 08:08:27;;;;;;;0.40;0.40;;;14.90;89.70;;;;;;5074465;28;20266;-67
2022/12/22 08:11:15;;;;;;;0.40;0.40;;;14.90;89.50;;;;;;5073892;28;20580;-68
2022/12/22 08:14:03;;;;;;;0.40;0.40;;;14.90;89.50;;;;;;5074301;28;20287;-67
2022/12/22 08:16:51;;;;;;;0.40;0.40;;;14.90;89.50;;;;;;5074111;28;20245;-66
2022/12/22 08:19:41;;;;;;;0.40;0.40;;;14.90;89.40;;;;;;5073341;28;20220;-66
2022/12/22 08:22:29;;;;;;;0.40;0.40;;;14.90;89.40;;;;;;5073451;28;20228;-67
2022/12/22 08:25:17;;;;;;;0.40;0.40;;;14.90;89.70;;;;;;5073183;28;20275;-67
2022/12/22 08:28:05;;;;;;;0.40;0.40;;;14.90;89.10;;;;;;5073343;28;20310;-69
2022/12/22 08:30:54;;;;;;;0.40;0.40;;;14.90;89.50;;;;;;5073129;28;20275;-67
2022/12/22 08:33:42;;;;;;;0.40;0.40;;;14.90;89.30;;;;;;5073371;28;20205;-69
2022/12/22 08:36:36;;;;;;;0.40;0.40;;;14.90;89.40;;;;;;5073122;28;20201;-69
2022/12/22 08:39:27;;;;;;;0.40;0.40;;;14.90;89.50;;;;;;5072429;28;20941;-69
2022/12/22 08:42:17;;;;;;;2.13;1.93;;;14.90;89.50;;;;;;5073026;28;20200;-67
2022/12/22 08:45:08;;;;;;;0.40;0.40;;;14.80;89.50;;;;;;5072986;28;20224;-66
2022/12/22 08:47:56;;;;;;;0.40;0.40;;;14.80;89.40;;;;;;5072925;28;20229;-67
2022/12/22 08:50:44;;;;;;;0.40;0.40;;;14.80;89.50;;;;;;5072694;28;20200;-67
2022/12/22 08:53:33;;;;;;;0.40;0.40;;;14.90;89.50;;;;;;5073303;28;20204;-68
2022/12/22 08:56:42;;;;;;;0.40;0.40;;;14.80;89.90;;;;;;5073282;28;20205;-67
2022/12/22 08:59:30;;;;;;;1.03;1.03;;;14.90;89.90;;;;;;5073648;28;20302;-68
2022/12/22 09:02:19;;;;;;;0.40;0.40;;;14.80;89.70;;;;;;5073033;28;20384;-67
2022/12/22 09:05:08;;;;;;;0.40;0.40;;;14.90;90.00;;;;;;5072639;28;20218;-70
2022/12/22 09:07:56;;;;;;;0.40;0.40;;;14.90;90.00;;;;;;5072412;28;20243;-67
2022/12/22 09:10:45;;;;;;;0.40;0.40;;;14.90;90.00;;;;;;5073401;28;20219;-67
2022/12/22 09:13:33;;;;;;;0.40;0.40;;;14.90;90.00;;;;;;5072912;28;20283;-69
2022/12/22 09:16:23;;;;;;;0.40;0.40;;;14.80;90.00;;;;;;5072767;28;20286;-68
2022/12/22 09:19:11;;;;;;;0.40;0.40;;;14.90;90.00;;;;;;5073616;28;20254;-74
2022/12/22 09:21:59;;;;;;;0.40;0.40;;;14.80;90.00;;;;;;5072716;28;20262;-70
2022/12/22 09:24:47;;;;;;;0.40;0.40;;;14.90;90.00;;;;;;5072416;28;20257;-69
2022/12/22 09:27:37;;;;;;;0.40;0.40;;;14.90;89.50;;;;;;5073134;28;20217;-69
2022/12/22 09:30:26;;;;;;;0.40;0.40;;;14.90;90.00;;;;;;5072215;28;20232;-67
2022/12/22 09:33:14;;;;;;;0.40;0.40;;;14.90;89.90;;;;;;5072540;28;20223;-67
2022/12/22 09:36:06;;;;;;;0.40;0.40;;;14.90;90.00;;;;;;5072889;28;20278;-67
2022/12/22 09:38:54;;;;;;;0.40;0.40;;;14.90;89.90;;;;;;5073458;28;20217;-69
2022/12/22 09:41:45;;;;;;;0.40;0.40;;;14.90;89.70;;;;;;5072409;28;20201;-67
2022/12/22 09:44:39;;;;;;;0.40;0.40;;;14.90;89.80;;;;;;5072842;28;20224;-68
2022/12/22 09:47:34;;;;;;;0.40;0.40;;;14.90;89.40;;;;;;5071997;28;20205;-68
2022/12/22 09:50:26;;;;;;;0.40;0.40;;;14.90;89.90;;;;;;5072066;28;20205;-66
2022/12/22 09:53:20;;;;;;;0.40;0.40;;;14.90;90.00;;;;;;5072111;28;20193;-66
2022/12/22 09:56:12;;;;;;;0.40;0.40;;;14.90;89.90;;;;;;5072745;28;20263;-70
2022/12/22 09:59:00;;;;;;;0.40;0.40;;;14.90;89.80;;;;;;5073010;28;20725;-67
2022/12/22 10:02:00;;;;;;;0.40;0.40;;;14.90;89.90;;;;;;5076346;28;20848;-67
2022/12/22 10:04:59;;;;;;;0.40;0.40;;;14.90;90.00;;;;;;5076183;28;20197;-66
2022/12/22 10:07:47;;;;;;;0.60;0.60;;;14.80;89.70;;;;;;5075320;28;20606;-68
2022/12/22 10:10:35;;;;;;;0.40;0.40;;;14.90;89.90;;;;;;5075207;28;20204;-69
2022/12/22 10:13:23;;;;;;;0.40;0.40;;;14.80;89.90;;;;;;5075627;28;20284;-67
2022/12/22 10:16:23;;;;;;;0.40;0.40;;;14.80;89.90;;;;;;5075781;28;20343;-68
2022/12/22 10:19:14;;;;;;;0.40;0.40;;;14.90;89.90;;;;;;5075495;28;20225;-68
2022/12/22 10:22:25;;;;;;;0.40;0.40;;;14.90;90.40;;;;;;5076059;28;20287;-67
2022/12/22 10:25:31;;;;;;;0.40;0.40;;;14.90;90.10;;;;;;5076207;28;20232;-68
2022/12/22 10:28:44;;;;;;;0.50;0.50;;;14.80;90.00;;;;;;5075233;28;20234;-70
2022/12/22 10:31:33;;;;;;;0.40;0.40;;;14.80;90.10;;;;;;5075011;28;20552;-67
2022/12/22 10:34:23;;;;;;;0.40;0.40;;;14.80;90.10;;;;;;5075414;28;20236;-66
2022/12/22 10:37:12;;;;;;;0.40;0.40;;;14.90;90.10;;;;;;5075467;28;20200;-68
2022/12/22 10:40:13;;;;;;;0.40;0.40;;;14.90;90.10;;;;;;5075544;28;20709;-69
2022/12/22 10:43:02;;;;;;;0.40;0.40;;;14.90;90.10;;;;;;5075113;28;20200;-66
2022/12/22 10:45:52;;;;;;;0.40;0.40;;;14.90;90.20;;;;;;5074655;28;20288;-68
2022/12/22 10:48:41;;;;;;;0.40;0.40;;;14.90;90.10;;;;;;5074674;28;20270;-68
2022/12/22 10:51:30;;;;;;;0.40;0.40;;;14.90;90.20;;;;;;5074664;28;20251;-67
2022/12/22 10:54:26;;;;;;;0.40;0.40;;;15.00;90.20;;;;;;5074518;28;20201;-70
2022/12/22 10:57:30;;;;;;;0.40;0.40;;;14.90;90.00;;;;;;5075878;28;20626;-68
2022/12/22 11:00:27;;;;;;;0.40;0.40;;;15.00;90.10;;;;;;5074347;28;20577;-67
2022/12/22 11:03:29;;;;;;;0.40;0.40;;;15.00;90.10;;;;;;5074565;28;20223;-67
2022/12/22 11:06:19;;;;;;;0.40;0.40;;;15.00;90.00;;;;;;5075884;28;20207;-67
2022/12/22 11:09:10;;;;;;;0.40;0.40;;;15.00;90.10;;;;;;5074998;28;20228;-70
2022/12/22 11:12:28;;;;;;;0.40;0.40;;;15.00;90.00;;;;;;5074404;28;20188;-67
2022/12/22 11:15:22;;;;;;;0.50;0.50;;;14.90;90.10;;;;;;5074602;28;20232;-68
2022/12/22 11:18:29;;;;;;;0.40;0.40;;;15.00;90.10;;;;;;5074687;28;20696;-67
2022/12/22 11:21:21;;;;;;;0.40;0.40;;;15.00;90.10;;;;;;5074569;28;20713;-67
2022/12/22 11:24:29;;;;;;;0.40;0.40;;;15.00;90.10;;;;;;5074596;28;20201;-69
2022/12/22 11:27:27;;;;;;;0.40;0.40;;;14.90;90.00;;;;;;5075065;28;20703;-69
2022/12/22 11:30:18;;;;;;;0.40;0.40;;;14.90;90.10;;;;;;5073426;28;20683;-68
2022/12/22 11:33:21;;;;;;;0.40;0.40;;;14.90;90.10;;;;;;5075195;28;20585;-67
2022/12/22 11:36:22;;;;;;;0.40;0.40;;;14.90;90.10;;;;;;5074008;28;20211;-69
2022/12/22 11:39:16;;;;;;;0.50;0.50;;;14.90;90.20;;;;;;5074071;28;20224;-67
2022/12/22 11:42:19;;;;;;;0.40;0.40;;;14.90;90.20;;;;;;5074473;28;20225;-68
2022/12/22 11:45:23;;;;;;;0.40;0.40;;;14.90;90.20;;;;;;5074628;28;20196;-68
2022/12/22 11:48:33;;;;;;;0.40;0.40;;;14.90;90.20;;;;;;5073944;28;20323;-68
2022/12/22 11:51:31;;;;;;;0.40;0.40;;;14.90;90.40;;;;;;5074393;28;20728;-68
2022/12/22 11:54:42;;;;;;;0.40;0.40;;;14.90;90.40;;;;;;5074497;28;20285;-68
2022/12/22 11:57:36;;;;;;;0.40;0.40;;;14.90;90.40;;;;;;5073816;28;20704;-67
2022/12/22 12:00:24;;;;;;;0.40;0.40;;;14.90;90.30;;;;;;5073119;28;20200;-68
2022/12/22 12:04:00;;;;;;;0.40;0.40;;;14.90;90.30;;;;;;5074090;28;20211;-68
2022/12/22 12:07:05;;;;;;;0.40;0.40;;;15.00;90.40;;;;;;5074477;28;20278;-70
2022/12/22 12:10:04;;;;;;;0.40;0.40;;;14.90;90.40;;;;;;5074036;28;20290;-68
2022/12/22 12:12:58;;;;;;;0.40;0.40;;;15.00;90.50;;;;;;5073601;28;20201;-69
2022/12/22 12:15:50;;;;;;;0.40;0.40;;;15.00;90.50;;;;;;5073787;28;20208;-68
2022/12/22 12:18:58;;;;;;;0.40;0.40;;;15.00;90.30;;;;;;5073072;28;20225;-69
2022/12/22 12:21:52;;;;;;;0.40;0.40;;;15.00;90.40;;;;;;5073687;28;20216;-68
2022/12/22 12:24:48;;;;;;;0.40;0.40;;;15.00;90.30;;;;;;5074095;28;20234;-68
2022/12/22 12:27:50;;;;;;;0.40;0.40;;;15.00;94.20;;;;;;5074171;28;20208;-68
2022/12/22 12:30:49;;;;;;;0.40;0.40;;;15.00;90.30;;;;;;5073088;28;20278;-68
2022/12/22 12:33:44;;;;;;;0.40;0.40;;;15.00;90.20;;;;;;5073146;28;20196;-69
2022/12/22 12:36:41;;;;;;;0.40;0.40;;;15.00;90.20;;;;;;5073354;28;20250;-68
2022/12/22 12:39:36;;;;;;;0.40;0.40;;;15.10;90.30;;;;;;5072850;28;20217;-68
2022/12/22 12:42:31;;;;;;;0.40;0.40;;;15.00;90.20;;;;;;5072862;28;20216;-68
2022/12/22 12:45:35;;;;;;;0.40;0.40;;;15.00;90.30;;;;;;5073209;28;20208;-70
2022/12/22 12:48:42;;;;;;;0.50;0.50;;;15.00;90.20;;;;;;5074278;28;20311;-68
2022/12/22 12:51:48;;;;;;;0.40;0.40;;;15.00;90.30;;;;;;5074272;28;20579;-69
2022/12/22 12:54:39;;;;;;;0.40;0.40;;;15.00;90.30;;;;;;5073035;28;20215;-68
2022/12/22 12:57:29;;;;;;;0.40;0.40;;;15.00;90.20;;;;;;5073489;28;20242;-67
2022/12/22 13:00:45;;;;;;;0.40;0.40;;;15.00;90.30;;;;;;5072805;28;20228;-67
2022/12/22 13:03:42;;;;;;;0.40;0.40;;;15.00;90.40;;;;;;5073203;28;20704;-68
2022/12/22 13:06:52;;;;;;;0.40;0.40;;;15.00;90.30;;;;;;5074336;28;20196;-71
2022/12/22 13:10:06;;;;;;;0.40;0.40;;;15.00;90.40;;;;;;5073302;28;20608;-70
2022/12/22 13:12:56;;;;;;;0.40;0.40;;;15.00;90.50;;;;;;5072793;28;20215;-68
2022/12/22 13:15:46;;;;;;;0.40;0.40;;;15.00;90.50;;;;;;5073705;28;20204;-68
2022/12/22 13:18:42;;;;;;;0.40;0.40;;;15.00;90.60;;;;;;5072725;28;20366;-67
2022/12/22 13:21:43;;;;;;;0.40;0.40;;;15.00;90.70;;;;;;5073200;28;20234;-68
2022/12/22 13:24:43;;;;;;;0.40;0.40;;;15.00;90.60;;;;;;5072870;28;20581;-68
2022/12/22 13:27:36;;;;;;;0.40;0.40;;;15.00;90.60;;;;;;5073191;28;20205;-67
2022/12/22 13:30:26;;;;;;;0.40;0.40;;;15.00;90.70;;;;;;5072533;28;20708;-67
2022/12/22 13:33:20;;;;;;;0.40;0.40;;;15.00;90.60;;;;;;5073758;28;20208;-69
2022/12/22 13:36:16;;;;;;;0.40;0.40;;;15.00;90.60;;;;;;5077394;28;20242;-70
2022/12/22 13:39:11;;;;;;;0.40;0.40;;;15.00;90.70;;;;;;5076618;28;20260;-67
2022/12/22 13:41:59;;;;;;;0.40;0.40;;;15.00;90.70;;;;;;5077364;28;20223;-68
2022/12/22 13:44:47;;;;;;;0.40;0.40;;;15.00;90.70;;;;;;5076637;28;20738;-67
2022/12/22 13:47:40;;;;;;;0.40;0.40;;;14.60;90.50;;;;;;5076808;28;20201;-69
2022/12/22 13:50:33;;;;;;;0.40;0.40;;;15.00;90.70;;;;;;5075904;28;20208;-67
2022/12/22 13:53:30;;;;;;;0.40;0.40;;;15.00;90.70;;;;;;5076830;28;20192;-71
2022/12/22 13:56:42;;;;;;;0.40;0.40;;;15.00;90.70;;;;;;5077833;28;20207;-68
2022/12/22 13:59:32;;;;;;;0.40;0.40;;;15.00;90.70;;;;;;5076144;28;20647;-67
2022/12/22 14:02:21;;;;;;;0.40;0.40;;;15.00;90.80;;;;;;5076555;28;20252;-70
2022/12/22 14:05:13;;;;;;;0.40;0.40;;;15.00;90.80;;;;;;5076815;28;20279;-68
2022/12/22 14:08:03;;;;;;;0.40;0.40;;;15.00;90.90;;;;;;5076693;28;20720;-67
2022/12/22 14:10:53;;;;;;;0.40;0.40;;;15.00;90.90;;;;;;5076225;28;20201;-67
2022/12/22 14:13:43;;;;;;;0.40;0.40;;;15.00;90.90;;;;;;5076574;28;20239;-67
2022/12/22 14:16:31;;;;;;;0.40;0.40;;;14.90;90.80;;;;;;5075711;28;20681;-68
2022/12/22 14:19:22;;;;;;;0.50;0.50;;;14.90;90.90;;;;;;5075879;28;20699;-68
2022/12/22 14:22:14;;;;;;;0.40;0.40;;;14.90;90.90;;;;;;5076125;28;20300;-67
2022/12/22 14:25:11;;;;;;;0.40;0.40;;;14.90;90.90;;;;;;5077146;28;20254;-68
2022/12/22 14:28:00;;;;;;;0.40;0.40;;;14.90;91.00;;;;;;5076596;28;20212;-67
2022/12/22 14:30:52;;;;;;;0.40;0.40;;;14.90;91.00;;;;;;5075585;28;20258;-67
2022/12/22 14:33:51;;;;;;;0.40;0.40;;;14.90;91.20;;;;;;5076535;28;20197;-68
2022/12/22 14:36:44;;;;;;;0.67;0.67;;;14.90;91.30;;;;;;5077813;28;20196;-67
2022/12/22 14:39:33;;;;;;;0.40;0.40;;;14.90;91.20;;;;;;5076080;28;20284;-68
2022/12/22 14:42:23;;;;;;;0.40;0.40;;;14.90;91.50;;;;;;5076488;28;20217;-68
2022/12/22 14:45:15;;;;;;;0.40;0.40;;;14.90;91.40;;;;;;5076255;28;20242;-72
2022/12/22 14:48:08;;;;;;;0.40;0.40;;;15.00;91.30;;;;;;5076543;28;20248;-67
2022/12/22 14:50:57;;;;;;;0.40;0.40;;;14.90;91.60;;;;;;5075867;28;20235;-68
2022/12/22 14:53:47;;;;;;;0.40;0.40;;;14.90;91.30;;;;;;5076485;28;20290;-67
2022/12/22 14:56:46;;;;;;;0.40;0.40;;;15.00;91.40;;;;;;5076667;28;20656;-70
2022/12/22 14:59:35;;;;;;;0.40;0.40;;;15.00;91.40;;;;;;5075904;28;20216;-68
2022/12/22 15:02:29;;;;;;;0.40;0.40;;;15.00;91.70;;;;;;5075272;28;20577;-68
2022/12/22 15:05:28;;;;;;;0.40;0.40;;;15.00;91.50;;;;;;5075560;28;20571;-71
2022/12/22 15:08:37;;;;;;;0.40;0.40;;;15.00;91.50;;;;;;5075426;28;20224;-68
2022/12/22 15:11:26;;;;;;;0.40;0.40;;;15.00;91.30;;;;;;5075372;28;20203;-68
2022/12/22 15:14:17;;;;;;;0.40;0.40;;;15.00;91.40;;;;;;5075432;28;20588;-69
2022/12/22 15:17:12;;;;;;;0.50;0.50;;;15.00;91.20;;;;;;5075852;28;20232;-67
2022/12/22 15:20:01;;;;;;;0.40;0.40;;;15.00;91.20;;;;;;5074731;28;20624;-68
2022/12/22 15:22:49;;;;;;;0.40;0.40;;;15.00;91.30;;;;;;5075095;28;20297;-67
2022/12/22 15:25:37;;;;;;;0.40;0.40;;;15.00;91.40;;;;;;5074982;28;20247;-67
2022/12/22 15:28:25;;;;;;;0.40;0.40;;;15.00;91.60;;;;;;5074103;28;20266;-66
2022/12/22 15:31:16;;;;;;;0.40;0.40;;;15.00;91.40;;;;;;5074696;28;20196;-67
2022/12/22 15:34:12;;;;;;;0.40;0.40;;;15.00;91.30;;;;;;5074418;28;20204;-68
2022/12/22 15:37:00;;;;;;;0.40;0.40;;;15.00;91.40;;;;;;5074814;28;20247;-66
2022/12/22 15:39:49;;;;;;;0.40;0.40;;;15.00;91.40;;;;;;5075203;28;20243;-67
2022/12/22 15:42:37;;;;;;;0.40;0.40;;;15.00;91.40;;;;;;5074634;28;20747;-68
2022/12/22 15:45:25;;;;;;;0.40;0.40;;;14.90;91.50;;;;;;5074570;28;20244;-68
2022/12/22 15:48:18;;;;;;;0.40;0.40;;;14.90;91.50;;;;;;5074520;28;20240;-67
2022/12/22 15:51:13;;;;;;;0.40;0.40;;;14.90;92.10;;;;;;5074215;28;20281;-67
2022/12/22 15:54:02;;;;;;;0.40;0.40;;;14.90;91.50;;;;;;5074416;28;20246;-69
2022/12/22 15:56:52;;;;;;;0.40;0.40;;;14.90;91.80;;;;;;5074197;28;20200;-70
2022/12/22 15:59:40;;;;;;;0.40;0.40;;;14.90;91.70;;;;;;5075339;28;20220;-67
2022/12/22 16:02:28;;;;;;;0.40;0.40;;;14.90;92.00;;;;;;5073978;28;20266;-68
2022/12/22 16:05:17;;;;;;;0.40;0.40;;;14.90;91.90;;;;;;5074521;28;20228;-68
2022/12/22 16:08:11;;;;;;;0.40;0.40;;;14.90;91.90;;;;;;5073921;28;20307;-67
2022/12/22 16:11:07;;;;;;;0.40;0.40;;;14.90;91.80;;;;;;5074164;28;20692;-67
2022/12/22 16:13:55;;;;;;;0.40;0.40;;;14.90;91.80;;;;;;5074773;28;20451;-67
2022/12/22 16:16:43;;;;;;;0.40;0.40;;;14.90;91.90;;;;;;5074512;28;20205;-68
2022/12/22 16:19:31;;;;;;;0.40;0.40;;;14.90;92.00;;;;;;5073222;28;20278;-68
2022/12/22 16:22:25;;;;;;;0.40;0.40;;;15.00;91.80;;;;;;5074634;28;20484;-68
2022/12/22 16:25:18;;;;;;;0.40;0.40;;;15.00;91.80;;;;;;5073895;28;20223;-67
2022/12/22 16:28:07;;;;;;;0.82;0.82;;;15.00;91.80;;;;;;5074307;28;20221;-67
2022/12/22 16:30:55;;;;;;;0.83;0.83;;;15.00;91.70;;;;;;5074441;28;20204;-68
2022/12/22 16:33:43;;;;;;;0.40;0.40;;;15.00;91.70;;;;;;5073859;28;20273;-68
2022/12/22 16:36:31;;;;;;;0.40;0.40;;;14.90;91.80;;;;;;5074156;28;20251;-69
2022/12/22 16:39:19;;;;;;;0.40;0.40;;;15.00;91.70;;;;;;5073292;28;20346;-67
2022/12/22 16:42:12;;;;;;;0.40;0.40;;;15.00;91.90;;;;;;5073209;28;20204;-67
2022/12/22 16:45:21;;;;;;;0.40;0.40;;;15.00;91.80;;;;;;5074019;28;20196;-69
2022/12/22 16:48:18;;;;;;;0.40;0.40;;;15.00;91.80;;;;;;5073582;28;20269;-68
2022/12/22 16:51:06;;;;;;;0.40;0.40;;;15.00;91.90;;;;;;5073185;28;20208;-68
2022/12/22 16:53:55;;;;;;;0.40;0.40;;;14.90;91.70;;;;;;5073630;28;20451;-68
2022/12/22 16:56:45;;;;;;;0.40;0.40;;;14.90;91.80;;;;;;5072526;28;20203;-68
2022/12/22 16:59:35;;;;;;;0.40;0.40;;;14.90;91.80;;;;;;5085538;28;20223;-67
2022/12/22 17:02:27;;;;;;;0.40;0.40;;;14.90;91.70;;;;;;5093794;28;20200;-68
2022/12/22 17:05:24;;;;;;;0.40;0.40;;;14.90;92.00;;;;;;5092737;28;20204;-68
2022/12/22 17:08:19;;;;;;;0.40;0.40;;;14.90;91.60;;;;;;5112505;22;20219;-64
2022/12/22 17:11:10;;;;;;;0.40;0.40;;;14.90;91.70;;;;;;5055901;28;20621;-64
2022/12/22 17:14:04;;;;;;;0.40;0.40;;;14.90;91.80;;;;;;5056202;28;20201;-64
2022/12/22 17:16:53;;;;;;;0.40;0.40;;;14.90;91.90;;;;;;5056149;28;20201;-64
2022/12/22 17:19:42;;;;;;;0.40;0.40;;;14.90;91.90;;;;;;5055623;28;20228;-64
2022/12/22 17:22:33;;;;;;;0.40;0.40;;;14.80;91.80;;;;;;5055378;28;20229;-64
2022/12/22 17:25:24;;;;;;;0.70;0.70;;;14.90;91.90;;;;;;5055087;28;20197;-65
2022/12/22 17:28:13;;;;;;;0.40;0.40;;;14.90;91.80;;;;;;5056016;28;20217;-64
2022/12/22 17:31:01;;;;;;;0.40;0.40;;;14.90;91.90;;;;;;5055182;28;20678;-64
2022/12/22 17:33:51;;;;;;;0.67;0.67;;;14.90;91.80;;;;;;5054168;28;20206;-64
2022/12/22 17:36:39;;;;;;;0.50;0.50;;;14.90;91.90;;;;;;5053962;28;20197;-64
2022/12/22 17:39:27;;;;;;;0.40;0.40;;;14.90;91.90;;;;;;5053674;28;20225;-64
2022/12/22 17:42:20;;;;;;;0.40;0.40;;;14.90;91.90;;;;;;5053839;28;20205;-64
2022/12/22 17:45:14;;;;;;;0.40;0.40;;;14.80;91.90;;;;;;5055755;28;20688;-64
2022/12/22 17:48:02;;;;;;;0.40;0.40;;;14.80;95.40;;;;;;5055534;28;20204;-64
2022/12/22 17:50:51;;;;;;;0.50;0.50;;;14.90;91.90;;;;;;5054432;28;20240;-65
2022/12/22 17:53:39;;;;;;;0.40;0.40;;;14.90;91.90;;;;;;5054832;28;20201;-64
2022/12/22 17:56:30;;;;;;;0.40;0.40;;;14.80;92.00;;;;;;5054803;28;20249;-65
2022/12/22 17:59:18;;;;;;;0.40;0.40;;;14.80;91.90;;;;;;5054441;28;20603;-65
2022/12/22 18:02:06;;;;;;;0.40;0.40;;;14.80;92.00;;;;;;5054043;28;20298;-65
2022/12/22 18:04:54;;;;;;;0.40;0.40;;;14.80;92.00;;;;;;5054426;28;20232;-65
2022/12/22 18:07:44;;;;;;;0.40;0.40;;;14.80;92.00;;;;;;5054373;28;20326;-65
2022/12/22 18:10:37;;;;;;;0.63;0.63;;;14.80;92.00;;;;;;5052987;28;20286;-65
2022/12/22 18:13:25;;;;;;;0.40;0.40;;;14.80;92.00;;;;;;5054489;28;20197;-64
2022/12/22 18:16:15;;;;;;;0.40;0.40;;;14.80;91.90;;;;;;5053945;28;20682;-65
2022/12/22 18:19:04;;;;;;;0.40;0.40;;;14.80;91.90;;;;;;5054087;28;20291;-64
2022/12/22 18:21:52;;;;;;;0.40;0.40;;;14.80;91.90;;;;;;5054154;28;20201;-65
2022/12/22 18:24:41;;;;;;;0.40;0.40;;;14.80;92.10;;;;;;5054305;28;20339;-64
2022/12/22 18:27:29;;;;;;;1.45;1.35;;;14.80;92.00;;;;;;5053699;28;20241;-64
2022/12/22 18:30:20;;;;;;;0.40;0.40;;;14.70;92.00;;;;;;5053583;28;20236;-64
2022/12/22 18:33:09;;;;;;;0.40;0.40;;;14.80;92.00;;;;;;5053791;28;20680;-65